Hoeydal — 3YPE — position and weather

sailwx.info

Track history (hours):
 
Tides and Currents Weather Stations Pressure Air Temp Water Temp Dewpoint Dewpoint Depression Visibility Wind Speed Wind Dir Waves Ship Positions

Hoeydal

Last reported at 2018-Jun-21 04:00 UTC. Time now 2018-Jun-21 04:14 UTC.
Position N 68°55' E 015°04'.

Length 70 m; draft 5 m.

Type: Cargo ship. MMSI: 257725000.

Date/timePositionNaut miles runAvg speedWind from/ knotsBaromVisibWave heightAir tempDewpointWater temp
2018-Jun-21 04:00N 68°55' E 015°04'0 0.0
2018-Jun-21 03:31N 68°55' E 015°04'0 0.0
2018-Jun-21 03:00N 68°55' E 015°04'0 0.0
2018-Jun-21 02:29N 68°55' E 015°04'0 0.0
2018-Jun-21 02:00N 68°55' E 015°04'0 0.0
2018-Jun-21 01:30N 68°55' E 015°04'0 0.0
2018-Jun-21 01:00N 68°55' E 015°04'0 0.0
2018-Jun-21 00:29N 68°55' E 015°04'0 0.0
2018-Jun-21 00:00N 68°55' E 015°04'0 0.0
2018-Jun-20 23:30N 68°55' E 015°04'0 0.0
2018-Jun-20 23:00N 68°55' E 015°04'0 0.0
2018-Jun-20 22:30N 68°55' E 015°04'0 0.0
2018-Jun-20 22:00N 68°55' E 015°04'0 0.0
2018-Jun-20 21:29N 68°55' E 015°04'0 0.0
2018-Jun-20 21:00N 68°55' E 015°04'0 0.0
2018-Jun-20 20:30N 68°55' E 015°04'0 0.0
2018-Jun-20 20:01N 68°55' E 015°04'0 0.0
2018-Jun-20 19:30N 68°55' E 015°04'0 0.0
2018-Jun-20 19:00N 68°55' E 015°04'0 0.0
2018-Jun-20 18:29N 68°55' E 015°04'0 0.0
2018-Jun-20 18:00N 68°55' E 015°04'0 0.0
2018-Jun-20 17:30N 68°55' E 015°04'0 0.0
2018-Jun-20 17:01N 68°55' E 015°04'0 0.0
2018-Jun-20 16:30N 68°55' E 015°04'0 0.0
2018-Jun-20 16:00N 68°55' E 015°04'0 0.8
2018-Jun-20 15:30N 68°55' E 015°05'0 0.0
2018-Jun-20 14:59N 68°55' E 015°05'0 0.0
2018-Jun-20 14:30N 68°55' E 015°05'0 0.0
2018-Jun-20 14:00N 68°55' E 015°05'0 0.0
2018-Jun-20 13:31N 68°55' E 015°05'0 0.0
2018-Jun-20 13:00N 68°55' E 015°05'0 0.8
2018-Jun-20 12:29N 68°55' E 015°04'0 0.0
2018-Jun-20 12:00N 68°55' E 015°04'0 0.0
2018-Jun-20 11:30N 68°55' E 015°04'0 0.0
2018-Jun-20 11:00N 68°55' E 015°04'0 0.0
2018-Jun-20 10:30N 68°55' E 015°04'0 0.0
2018-Jun-20 10:00N 68°55' E 015°04'0 0.0
2018-Jun-20 09:30N 68°55' E 015°04'0 0.0
2018-Jun-20 08:59N 68°55' E 015°04'0 0.0
2018-Jun-20 08:30N 68°55' E 015°04'0 0.0
2018-Jun-20 08:00N 68°55' E 015°04'0 0.0
2018-Jun-20 07:30N 68°55' E 015°04'0 0.0
2018-Jun-20 07:01N 68°55' E 015°04'0 0.0
2018-Jun-20 06:29N 68°55' E 015°04'0 0.0
2018-Jun-20 06:00N 68°55' E 015°04'0 0.0
2018-Jun-20 05:30N 68°55' E 015°04'0 0.0
2018-Jun-20 05:01N 68°55' E 015°04'0 0.0
2018-Jun-20 04:30N 68°55' E 015°04'0 0.0
2018-Jun-20 04:00N 68°55' E 015°04'0 0.0
2018-Jun-20 03:30N 68°55' E 015°04'0 0.0
2018-Jun-20 02:59N 68°55' E 015°04'0 0.0
2018-Jun-20 02:30N 68°55' E 015°04'4 7.9
2018-Jun-20 02:00N 68°58' E 014°59'5 9.5
2018-Jun-20 01:30N 69°02' E 015°05'510.4
2018-Jun-20 01:00N 69°02' E 015°19'510.4
2018-Jun-20 00:29N 68°56' E 015°24'611.4
2018-Jun-20 00:00N 68°51' E 015°26'611.5
2018-Jun-19 23:30N 68°45' E 015°25'611.5
2018-Jun-19 23:01N 68°40' E 015°25'611.8
2018-Jun-19 22:29N 68°35' E 015°13'510.9
2018-Jun-19 22:00N 68°30' E 015°10'5 9.5
2018-Jun-19 21:30N 68°25' E 015°08'611.2
2018-Jun-19 21:00N 68°20' E 015°01'611.0
2018-Jun-19 20:30N 68°15' E 014°56'611.3
2018-Jun-19 20:00N 68°10' E 014°51'510.8
2018-Jun-19 19:30N 68°05' E 014°46'511.0
2018-Jun-19 19:01N 67°60' E 014°40'611.2
2018-Jun-19 18:31N 67°55' E 014°34'611.8
2018-Jun-19 18:00N 67°49' E 014°30'611.9
2018-Jun-19 17:29N 67°43' E 014°31'612.2
2018-Jun-19 17:01N 67°37' E 014°31'612.3
2018-Jun-19 16:31N 67°31' E 014°29'612.1
2018-Jun-19 16:00N 67°25' E 014°27'612.4
2018-Jun-19 15:30N 67°19' E 014°23'1 2.8
2018-Jun-19 15:01N 67°17' E 014°23'0 0.0
2018-Jun-19 14:30N 67°17' E 014°23'0 0.1
2018-Jun-19 14:00N 67°17' E 014°23'4 8.6
2018-Jun-19 13:30N 67°16' E 014°13'612.3
2018-Jun-19 13:01N 67°11' E 014°04'612.5
2018-Jun-19 12:30N 67°05' E 013°56'611.6
2018-Jun-19 12:01N 67°01' E 013°45'611.4
2018-Jun-19 11:30N 66°58' E 013°33'510.3
2018-Jun-19 11:00N 66°54' E 013°26'611.2
2018-Jun-19 10:29N 66°49' E 013°16'511.3
2018-Jun-19 10:00N 66°44' E 013°12'611.7
2018-Jun-19 09:30N 66°39' E 013°06'610.7
2018-Jun-19 08:59N 66°33' E 013°03'4 9.2
2018-Jun-19 08:29N 66°29' E 012°59'611.6
2018-Jun-19 08:01N 66°24' E 012°59'611.4
2018-Jun-19 07:30N 66°18' E 012°56'5 9.5
2018-Jun-19 07:00N 66°13' E 012°57'2 4.2
2018-Jun-19 06:29N 66°11' E 012°60'4 7.5
2018-Jun-19 06:00N 66°09' E 012°53'511.0
2018-Jun-19 05:31N 66°06' E 012°42'612.6
2018-Jun-19 05:00N 66°01' E 012°32'712.8
2018-Jun-19 04:30N 65°55' E 012°23'612.6
2018-Jun-19 04:00N 65°49' E 012°21'612.6
2018-Jun-19 03:30N 65°43' E 012°16'612.7
2018-Jun-19 03:00N 65°37' E 012°12'612.3
2018-Jun-19 02:30N 65°32' E 012°03'712.4
2018-Jun-19 01:56N 65°26' E 011°56'511.7
2018-Jun-19 01:30N 65°22' E 012°03'612.4
2018-Jun-19 01:00N 65°16' E 011°57'612.5
2018-Jun-19 00:30N 65°10' E 011°51'612.2
2018-Jun-19 00:01N 65°05' E 011°46'611.6
2018-Jun-18 23:31N 65°00' E 011°37'611.6
2018-Jun-18 23:01N 64°56' E 011°27'612.2
2018-Jun-18 22:31N 64°52' E 011°17'1 1.2
2018-Jun-18 22:01N 64°51' E 011°17'4 8.5
2018-Jun-18 21:30N 64°49' E 011°08'612.4
2018-Jun-18 21:00N 64°44' E 010°59'612.4
2018-Jun-18 20:30N 64°40' E 010°47'612.6
2018-Jun-18 20:01N 64°35' E 010°40'612.6
2018-Jun-18 19:30N 64°29' E 010°33'611.9
2018-Jun-18 19:00N 64°24' E 010°26'510.8
2018-Jun-18 18:30N 64°19' E 010°25'611.2
2018-Jun-18 18:00N 64°14' E 010°16'612.4
2018-Jun-18 17:30N 64°10' E 010°08'611.7
2018-Jun-18 17:00N 64°05' E 010°01'4 8.4
2018-Jun-18 16:30N 64°01' E 009°58'612.2
2018-Jun-18 15:59N 63°56' E 009°48'612.1
2018-Jun-18 15:30N 63°51' E 009°40'612.3
2018-Jun-18 15:01N 63°46' E 009°33'611.8
2018-Jun-18 14:30N 63°43' E 009°21'510.8
2018-Jun-18 14:00N 63°39' E 009°16'612.0
2018-Jun-18 13:30N 63°32' E 009°14'3 5.1
2018-Jun-18 13:00N 63°30' E 009°12'0 0.0
2018-Jun-18 12:30N 63°30' E 009°12'2 3.6
2018-Jun-18 12:01N 63°30' E 009°08'3 6.1
2018-Jun-18 11:30N 63°28' E 009°05'0 0.0
2018-Jun-18 11:00N 63°28' E 009°04'0 0.0
2018-Jun-18 10:30N 63°28' E 009°04'0 0.0
2018-Jun-18 10:00N 63°28' E 009°04'2 3.1
2018-Jun-18 09:30N 63°29' E 009°03'4 7.8
2018-Jun-18 09:00N 63°31' E 009°10'1 1.5
2018-Jun-18 08:30N 63°32' E 009°09'3 6.9
2018-Jun-18 08:00N 63°34' E 009°15'1 2.9
2018-Jun-18 07:30N 63°33' E 009°12'0 0.0
2018-Jun-18 07:00N 63°33' E 009°12'0 0.0
2018-Jun-18 06:30N 63°33' E 009°12'0 0.0
2018-Jun-18 06:00N 63°33' E 009°12'0 0.0
2018-Jun-18 05:29N 63°33' E 009°12'0 0.0
2018-Jun-18 05:01N 63°33' E 009°12'0 0.0
2018-Jun-18 04:29N 63°33' E 009°12'0 0.0
2018-Jun-18 04:00N 63°33' E 009°12'0 0.0
2018-Jun-18 03:30N 63°33' E 009°12'0 0.0
2018-Jun-18 03:00N 63°33' E 009°12'0 0.0
2018-Jun-18 02:30N 63°33' E 009°12'0 0.0
2018-Jun-18 02:01N 63°33' E 009°12'0 0.0
2018-Jun-18 01:30N 63°33' E 009°12'0 0.0
2018-Jun-18 01:00N 63°33' E 009°12'0 0.0
2018-Jun-18 00:30N 63°33' E 009°12'0 0.0
2018-Jun-18 00:00N 63°33' E 009°12'0 0.0
2018-Jun-17 23:30N 63°33' E 009°12'0 0.0
2018-Jun-17 23:00N 63°33' E 009°12'0 0.0
2018-Jun-17 22:30N 63°33' E 009°12'0 0.0
2018-Jun-17 22:01N 63°33' E 009°12'0 0.0
2018-Jun-17 21:31N 63°33' E 009°12'0 0.0
2018-Jun-17 21:01N 63°33' E 009°12'0 0.0
2018-Jun-17 20:31N 63°33' E 009°12'0 0.0
2018-Jun-17 20:00N 63°33' E 009°12'0 0.0
2018-Jun-17 19:30N 63°33' E 009°12'0 0.0
2018-Jun-17 19:00N 63°33' E 009°12'2 3.4
2018-Jun-17 18:29N 63°32' E 009°10'611.7
2018-Jun-17 18:00N 63°29' E 009°00'2 3.8
2018-Jun-17 17:31N 63°27' E 008°57'0 0.0
2018-Jun-17 17:00N 63°27' E 008°57'0 0.0
2018-Jun-17 16:30N 63°27' E 008°57'1 1.1
2018-Jun-17 16:00N 63°27' E 008°57'0 0.0
2018-Jun-17 15:28N 63°27' E 008°57'0 0.0
2018-Jun-17 15:00N 63°27' E 008°57'0 0.0
2018-Jun-17 14:28N 63°27' E 008°57'0 0.4
2018-Jun-17 14:00N 63°27' E 008°58'4 8.4
2018-Jun-17 13:31N 63°27' E 008°48'611.8
2018-Jun-17 13:00N 63°25' E 008°36'611.9
2018-Jun-17 12:30N 63°24' E 008°23'510.8
2018-Jun-17 12:00N 63°27' E 008°13'611.9
2018-Jun-17 11:30N 63°33' E 008°15'510.8
2018-Jun-17 11:00N 63°37' E 008°23'510.4
2018-Jun-17 10:29N 63°38' E 008°35'0 0.5
2018-Jun-17 10:00N 63°38' E 008°35'1 1.3
2018-Jun-17 09:29N 63°39' E 008°34'510.1
2018-Jun-17 09:00N 63°40' E 008°45'510.8
2018-Jun-17 08:30N 63°42' E 008°56'510.7
2018-Jun-17 08:00N 63°47' E 008°59'510.4
2018-Jun-17 07:31N 63°50' E 008°50'2 4.4
2018-Jun-17 07:01N 63°49' E 008°45'0 0.0
2018-Jun-17 06:30N 63°49' E 008°45'0 0.0
2018-Jun-17 06:00N 63°49' E 008°45'0 0.0
2018-Jun-17 05:30N 63°49' E 008°45'0 0.0
2018-Jun-17 05:01N 63°49' E 008°45'0 0.0
2018-Jun-17 04:31N 63°49' E 008°45'1 2.4
2018-Jun-17 04:00N 63°50' E 008°47'3 5.7
2018-Jun-17 03:31N 63°50' E 008°53'4 8.4
2018-Jun-17 02:59N 63°47' E 008°60'4 8.7
2018-Jun-17 02:30N 63°43' E 008°57'510.1
2018-Jun-17 01:59N 63°40' E 008°46'2 4.8
2018-Jun-17 01:30N 63°39' E 008°41'0 0.0
2018-Jun-17 01:00N 63°39' E 008°41'0 0.0
2018-Jun-17 00:30N 63°39' E 008°41'0 0.0
2018-Jun-17 00:00N 63°39' E 008°41'0 0.0
2018-Jun-16 23:30N 63°39' E 008°41'0 0.0
2018-Jun-16 23:00N 63°39' E 008°41'0 0.0
2018-Jun-16 22:30N 63°39' E 008°41'0 0.0
2018-Jun-16 22:00N 63°39' E 008°41'0 0.0
2018-Jun-16 21:30N 63°39' E 008°41'0 0.0
2018-Jun-16 21:00N 63°39' E 008°41'0 0.9
2018-Jun-16 20:29N 63°40' E 008°41'1 1.4
2018-Jun-16 20:00N 63°40' E 008°43'4 8.4
2018-Jun-16 19:30N 63°41' E 008°52'510.5
2018-Jun-16 19:00N 63°42' E 009°04'5 9.3
2018-Jun-16 18:30N 63°40' E 009°13'611.1
2018-Jun-16 18:00N 63°34' E 009°16'611.0
2018-Jun-16 17:29N 63°30' E 009°07'3 6.1
2018-Jun-16 16:59N 63°28' E 009°04'0 0.0
2018-Jun-16 16:30N 63°28' E 009°04'3 5.4
2018-Jun-16 16:01N 63°30' E 009°06'2 4.7
2018-Jun-16 15:30N 63°30' E 009°12'0 0.0
2018-Jun-16 15:00N 63°30' E 009°12'0 0.0
2018-Jun-16 14:30N 63°30' E 009°12'1 1.1
2018-Jun-16 14:01N 63°31' E 009°12'2 3.5
2018-Jun-16 13:30N 63°32' E 009°09'0 0.0
2018-Jun-16 13:00N 63°32' E 009°09'0 0.0
2018-Jun-16 12:30N 63°32' E 009°09'3 6.0
2018-Jun-16 12:00N 63°33' E 009°15'510.4
2018-Jun-16 11:30N 63°34' E 009°26'1 2.0
2018-Jun-16 10:59N 63°34' E 009°28'0 0.0
2018-Jun-16 10:30N 63°34' E 009°28'3 6.2
2018-Jun-16 10:00N 63°37' E 009°24'612.3
2018-Jun-16 09:30N 63°40' E 009°13'612.2
2018-Jun-16 09:00N 63°42' E 008°60'714.0
2018-Jun-16 08:30N 63°40' E 008°44'1 2.3
2018-Jun-16 08:00N 63°40' E 008°42'3 6.9
2018-Jun-16 07:30N 63°41' E 008°50'611.3
2018-Jun-16 07:00N 63°42' E 009°02'611.6
2018-Jun-16 06:30N 63°44' E 009°14'611.8
2018-Jun-16 06:00N 63°47' E 009°26'611.6
2018-Jun-16 05:29N 63°50' E 009°37'611.6
2018-Jun-16 05:00N 63°54' E 009°46'611.5
2018-Jun-16 04:30N 63°59' E 009°54'611.0
2018-Jun-16 04:00N 64°03' E 010°03'4 9.0
2018-Jun-16 03:30N 64°07' E 010°03'610.9
2018-Jun-16 03:00N 64°12' E 010°10'510.9
2018-Jun-16 02:30N 64°15' E 010°19'510.4
2018-Jun-16 02:00N 64°20' E 010°26'510.0
2018-Jun-16 01:30N 64°25' E 010°26'3 6.5
2018-Jun-16 01:00N 64°28' E 010°28'3 6.4
2018-Jun-16 00:30N 64°30' E 010°34'2 4.7
2018-Jun-16 00:00N 64°32' E 010°36'2 3.8
2018-Jun-15 23:29N 64°34' E 010°38'2 3.9
2018-Jun-15 23:00N 64°35' E 010°41'2 4.1
2018-Jun-15 22:30N 64°36' E 010°45'2 3.9
2018-Jun-15 22:00N 64°37' E 010°49'2 3.6
2018-Jun-15 21:30N 64°38' E 010°53'2 3.3
2018-Jun-15 21:00N 64°39' E 010°56'2 4.4
2018-Jun-15 20:30N 64°39' E 011°01'3 6.1
2018-Jun-15 20:00N 64°41' E 011°07'5 8.8
2018-Jun-15 19:29N 64°46' E 011°05'4 7.3
2018-Jun-15 19:00N 64°49' E 011°09'4 7.7
2018-Jun-15 18:31N 64°52' E 011°16'0 0.7
2018-Jun-15 18:00N 64°51' E 011°17'0 0.0
2018-Jun-15 17:30N 64°51' E 011°17'0 0.0
2018-Jun-15 17:00N 64°51' E 011°17'0 0.0
2018-Jun-15 16:30N 64°51' E 011°17'0 0.0
2018-Jun-15 16:00N 64°51' E 011°17'0 0.0
2018-Jun-15 15:30N 64°51' E 011°17'0 0.0
2018-Jun-15 15:00N 64°51' E 011°17'0 0.0
2018-Jun-15 14:29N 64°51' E 011°17'0 0.0
2018-Jun-15 14:00N 64°51' E 011°17'0 0.0
2018-Jun-15 13:30N 64°51' E 011°17'0 0.0
2018-Jun-15 13:00N 64°51' E 011°17'0 0.0
2018-Jun-15 12:30N 64°51' E 011°17'0 0.0
2018-Jun-15 12:00N 64°51' E 011°17'0 0.0
2018-Jun-15 11:30N 64°51' E 011°17'0 0.0
2018-Jun-15 11:00N 64°51' E 011°17'0 0.0
2018-Jun-15 10:30N 64°51' E 011°17'0 0.0
2018-Jun-15 10:00N 64°51' E 011°17'0 0.0
2018-Jun-15 09:30N 64°51' E 011°17'0 0.0
2018-Jun-15 09:00N 64°51' E 011°17'0 0.0
2018-Jun-15 08:30N 64°51' E 011°17'0 0.0
2018-Jun-15 08:00N 64°51' E 011°17'0 0.0
2018-Jun-15 07:30N 64°51' E 011°17'0 0.0
2018-Jun-15 07:00N 64°51' E 011°17'0 0.0
2018-Jun-15 06:29N 64°51' E 011°17'0 0.0
2018-Jun-15 06:00N 64°51' E 011°17'0 0.0
2018-Jun-15 05:30N 64°51' E 011°17'0 0.0
2018-Jun-15 05:00N 64°51' E 011°17'0 0.0
2018-Jun-15 04:30N 64°51' E 011°17'0 0.0
2018-Jun-15 04:00N 64°51' E 011°17'0 0.0
2018-Jun-15 03:30N 64°51' E 011°17'0 0.0
2018-Jun-15 03:00N 64°51' E 011°17'0 0.0
2018-Jun-15 02:30N 64°51' E 011°17'0 0.0
2018-Jun-15 02:00N 64°51' E 011°17'0 0.0
2018-Jun-15 01:30N 64°51' E 011°17'0 0.0
2018-Jun-15 01:00N 64°51' E 011°17'0 0.0
2018-Jun-15 00:30N 64°51' E 011°17'0 0.0
2018-Jun-15 00:00N 64°51' E 011°17'0 0.0
2018-Jun-14 23:30N 64°51' E 011°17'0 0.0
2018-Jun-14 23:00N 64°51' E 011°17'0 0.2
2018-Jun-14 22:30N 64°52' E 011°17'0 0.0
2018-Jun-14 22:00N 64°52' E 011°17'0 0.0
2018-Jun-14 21:30N 64°52' E 011°17'0 0.0
2018-Jun-14 21:00N 64°52' E 011°17'0 0.0
2018-Jun-14 20:29N 64°52' E 011°17'0 0.0
2018-Jun-14 20:00N 64°52' E 011°17'0 0.0
2018-Jun-14 19:30N 64°52' E 011°17'0 0.0
2018-Jun-14 19:00N 64°52' E 011°17'0 0.0
2018-Jun-14 18:30N 64°52' E 011°17'0 0.0
2018-Jun-14 18:00N 64°52' E 011°17'0 0.0
2018-Jun-14 17:30N 64°52' E 011°17'0 0.0
2018-Jun-14 17:00N 64°52' E 011°17'0 0.0
2018-Jun-14 16:30N 64°52' E 011°17'0 0.3
2018-Jun-14 16:01N 64°52' E 011°16'4 9.0
2018-Jun-14 15:30N 64°49' E 011°08'611.4
2018-Jun-14 15:00N 64°43' E 011°06'611.9
2018-Jun-14 14:30N 64°38' E 011°13'2 4.6
2018-Jun-14 14:00N 64°36' E 011°16'0 0.0
2018-Jun-14 13:30N 64°36' E 011°16'0 0.0
2018-Jun-14 13:00N 64°36' E 011°16'2 4.0
2018-Jun-14 12:30N 64°38' E 011°14'5 9.9
2018-Jun-14 12:00N 64°40' E 011°03'611.5
2018-Jun-14 11:30N 64°38' E 010°51'611.8
2018-Jun-14 11:00N 64°34' E 010°39'611.9
2018-Jun-14 10:30N 64°31' E 010°28'612.1
2018-Jun-14 10:00N 64°27' E 010°18'612.1
2018-Jun-14 09:30N 64°23' E 010°07'612.2
2018-Jun-14 09:00N 64°18' E 009°57'612.3
2018-Jun-14 08:30N 64°14' E 009°48'612.1
2018-Jun-14 08:00N 64°09' E 009°41'611.7
2018-Jun-14 07:30N 64°03' E 009°34'611.8
2018-Jun-14 07:00N 63°58' E 009°27'612.0
2018-Jun-14 06:30N 63°54' E 009°19'612.0
2018-Jun-14 05:58N 63°49' E 009°10'612.3
2018-Jun-14 05:30N 63°44' E 009°02'3 5.6
2018-Jun-14 05:00N 63°42' E 008°59'0 0.0
2018-Jun-14 04:29N 63°42' E 008°59'4 8.3
2018-Jun-14 04:00N 63°42' E 009°08'611.7
2018-Jun-14 03:30N 63°36' E 009°14'5 9.9
2018-Jun-14 03:00N 63°32' E 009°11'5 9.9
2018-Jun-14 02:30N 63°28' E 009°05'0 0.1
2018-Jun-14 02:00N 63°28' E 009°04'0 0.5
2018-Jun-14 01:30N 63°28' E 009°04'5 9.9
2018-Jun-14 01:00N 63°27' E 008°53'611.5
2018-Jun-14 00:30N 63°26' E 008°41'611.3
2018-Jun-14 00:00N 63°23' E 008°30'611.2
2018-Jun-13 23:29N 63°20' E 008°19'611.6
2018-Jun-13 23:00N 63°16' E 008°10'611.7
2018-Jun-13 22:30N 63°13' E 007°58'611.8
2018-Jun-13 22:00N 63°11' E 007°47'611.7
2018-Jun-13 21:30N 63°08' E 007°36'612.0
2018-Jun-13 21:00N 63°04' E 007°25'611.6
2018-Jun-13 20:30N 63°03' E 007°13'611.6
2018-Jun-13 20:00N 63°00' E 007°01'511.0
2018-Jun-13 19:30N 62°57' E 006°50'611.4
2018-Jun-13 19:00N 62°53' E 006°43'611.5
2018-Jun-13 18:30N 62°48' E 006°37'611.8
2018-Jun-13 18:00N 62°43' E 006°30'611.9
2018-Jun-13 17:30N 62°38' E 006°22'611.3
2018-Jun-13 17:00N 62°34' E 006°13'5 9.1
2018-Jun-13 16:29N 62°30' E 006°09'2 3.9
2018-Jun-13 16:00N 62°29' E 006°12'0 0.0
2018-Jun-13 15:27N 62°29' E 006°12'0 0.0
2018-Jun-13 15:00N 62°29' E 006°12'0 0.0
2018-Jun-13 14:30N 62°29' E 006°12'0 0.0
2018-Jun-13 14:00N 62°29' E 006°12'0 0.0
2018-Jun-13 13:30N 62°29' E 006°12'0 0.0
2018-Jun-13 13:00N 62°29' E 006°12'0 0.0
2018-Jun-13 12:30N 62°29' E 006°12'0 0.0
2018-Jun-13 12:00N 62°29' E 006°12'0 0.0
2018-Jun-13 11:30N 62°29' E 006°12'0 0.0
2018-Jun-13 11:00N 62°29' E 006°12'0 0.0
2018-Jun-13 10:30N 62°29' E 006°12'0 0.0
2018-Jun-13 10:00N 62°29' E 006°12'0 0.3
2018-Jun-13 09:30N 62°29' E 006°12'0 0.0
2018-Jun-13 09:00N 62°29' E 006°12'0 0.5
2018-Jun-13 08:30N 62°29' E 006°12'2 4.4
2018-Jun-13 08:00N 62°29' E 006°07'2 3.8
2018-Jun-13 07:30N 62°27' E 006°10'3 6.4
2018-Jun-13 07:00N 62°26' E 006°17'0 0.2
2018-Jun-13 06:30N 62°26' E 006°17'0 0.0
2018-Jun-13 06:00N 62°26' E 006°17'0 0.0
2018-Jun-13 05:30N 62°26' E 006°17'0 0.0
2018-Jun-13 05:00N 62°26' E 006°17'0 0.0
2018-Jun-13 04:30N 62°27' E 006°17'0 0.0
2018-Jun-13 04:00N 62°26' E 006°17'0 0.0
2018-Jun-13 03:30N 62°26' E 006°17'0 0.0
2018-Jun-13 02:59N 62°26' E 006°17'0 0.0
2018-Jun-13 02:30N 62°26' E 006°17'0 0.0
2018-Jun-13 02:00N 62°26' E 006°17'0 0.0
2018-Jun-13 01:30N 62°26' E 006°17'0 0.0
2018-Jun-13 01:00N 62°26' E 006°17'0 0.0
2018-Jun-13 00:30N 62°26' E 006°17'0 0.0
2018-Jun-13 00:00N 62°26' E 006°17'0 0.0
2018-Jun-12 23:29N 62°26' E 006°17'0 0.0
2018-Jun-12 23:00N 62°26' E 006°17'0 0.0
2018-Jun-12 22:30N 62°26' E 006°17'0 0.0
2018-Jun-12 22:00N 62°26' E 006°17'0 0.0
2018-Jun-12 21:30N 62°26' E 006°17'0 0.0
2018-Jun-12 21:00N 62°26' E 006°17'0 0.0
2018-Jun-12 20:30N 62°26' E 006°17'0 0.0
2018-Jun-12 20:00N 62°26' E 006°17'0 0.0
2018-Jun-12 19:30N 62°26' E 006°17'0 0.0
2018-Jun-12 19:00N 62°26' E 006°17'0 0.0
2018-Jun-12 18:30N 62°26' E 006°17'0 0.0
2018-Jun-12 17:59N 62°26' E 006°17'0 0.0
2018-Jun-12 17:30N 62°26' E 006°17'0 0.0
2018-Jun-12 17:00N 62°26' E 006°17'0 0.0
2018-Jun-12 16:30N 62°26' E 006°17'0 0.0
2018-Jun-12 16:00N 62°26' E 006°17'0 0.0
2018-Jun-12 15:30N 62°26' E 006°17'0 0.0
2018-Jun-12 15:00N 62°26' E 006°17'0 0.0
2018-Jun-12 14:30N 62°26' E 006°17'0 0.0
2018-Jun-12 13:58N 62°26' E 006°17'0 0.0
2018-Jun-12 13:30N 62°26' E 006°17'0 0.0
2018-Jun-12 12:59N 62°26' E 006°17'0 0.0
2018-Jun-12 12:29N 62°26' E 006°17'0 0.0
2018-Jun-12 11:59N 62°26' E 006°17'0 0.0
2018-Jun-12 11:30N 62°26' E 006°17'0 0.0
2018-Jun-12 11:00N 62°26' E 006°17'0 0.0
2018-Jun-12 10:29N 62°26' E 006°17'0 0.0
2018-Jun-12 10:00N 62°26' E 006°17'0 0.0
2018-Jun-12 09:30N 62°26' E 006°17'0 0.0
2018-Jun-12 09:00N 62°26' E 006°17'0 0.0
2018-Jun-12 08:30N 62°27' E 006°17'0 0.0
2018-Jun-12 08:00N 62°26' E 006°17'0 0.0
2018-Jun-12 07:30N 62°26' E 006°17'0 0.0
2018-Jun-12 07:00N 62°26' E 006°17'0 0.0
2018-Jun-12 06:30N 62°26' E 006°17'0 0.0
2018-Jun-12 06:00N 62°26' E 006°17'0 0.0
2018-Jun-12 05:30N 62°26' E 006°17'0 0.0
2018-Jun-12 05:00N 62°26' E 006°17'0 0.0
2018-Jun-12 04:30N 62°26' E 006°17'0 0.0
2018-Jun-12 04:00N 62°26' E 006°17'0 0.0
2018-Jun-12 03:29N 62°26' E 006°17'0 0.0
2018-Jun-12 02:58N 62°26' E 006°17'0 0.0
2018-Jun-12 02:30N 62°26' E 006°17'0 0.0
2018-Jun-12 02:00N 62°26' E 006°17'0 0.0
2018-Jun-12 01:30N 62°26' E 006°17'0 0.0
2018-Jun-12 00:59N 62°26' E 006°17'0 0.0
2018-Jun-12 00:30N 62°26' E 006°17'0 0.0
2018-Jun-12 00:00N 62°26' E 006°17'0 0.0
2018-Jun-11 23:30N 62°26' E 006°17'0 0.0
2018-Jun-11 23:00N 62°26' E 006°17'0 0.0
2018-Jun-11 22:29N 62°26' E 006°17'0 0.0
2018-Jun-11 22:00N 62°26' E 006°17'0 0.0
2018-Jun-11 21:30N 62°26' E 006°17'0 0.0
2018-Jun-11 21:00N 62°26' E 006°17'0 0.0
2018-Jun-11 20:30N 62°26' E 006°17'0 0.0
2018-Jun-11 20:00N 62°26' E 006°17'0 0.0
2018-Jun-11 19:29N 62°26' E 006°17'0 0.0
2018-Jun-11 19:00N 62°26' E 006°17'0 0.0
2018-Jun-11 18:30N 62°26' E 006°17'0 0.0
2018-Jun-11 17:59N 62°26' E 006°17'0 0.0
2018-Jun-11 17:30N 62°26' E 006°17'0 0.0
2018-Jun-11 17:00N 62°26' E 006°17'0 0.0
2018-Jun-11 16:30N 62°26' E 006°17'0 0.0
2018-Jun-11 15:59N 62°26' E 006°17'0 0.0
2018-Jun-11 15:30N 62°26' E 006°17'0 0.0
2018-Jun-11 15:00N 62°26' E 006°17'0 0.0
2018-Jun-11 14:30N 62°26' E 006°17'0 0.0
2018-Jun-11 13:58N 62°26' E 006°17'0 0.0
2018-Jun-11 13:30N 62°26' E 006°17'0 0.0
2018-Jun-11 12:59N 62°26' E 006°17'0 0.0
2018-Jun-11 12:29N 62°26' E 006°17'0 0.0
2018-Jun-11 12:00N 62°26' E 006°17'0 0.0
2018-Jun-11 11:30N 62°26' E 006°17'0 0.0
2018-Jun-11 11:00N 62°26' E 006°17'0 0.0
2018-Jun-11 10:30N 62°26' E 006°17'0 0.0
2018-Jun-11 10:00N 62°26' E 006°17'0 0.3
2018-Jun-11 09:30N 62°26' E 006°17'0 0.0
2018-Jun-11 09:00N 62°26' E 006°17'0 0.0
2018-Jun-11 08:30N 62°26' E 006°17'0 0.0
2018-Jun-11 08:00N 62°26' E 006°17'0 0.0
2018-Jun-11 07:30N 62°26' E 006°17'0 0.0
2018-Jun-11 06:59N 62°26' E 006°17'0 0.0
2018-Jun-11 06:29N 62°26' E 006°17'0 0.5
2018-Jun-11 06:00N 62°27' E 006°17'0 0.1
2018-Jun-11 05:30N 62°27' E 006°17'0 0.0
2018-Jun-11 05:00N 62°27' E 006°17'0 0.0
2018-Jun-11 04:30N 62°27' E 006°17'0 0.0
2018-Jun-11 04:00N 62°27' E 006°17'  
Track history (hours):
 
Tides and Currents Weather Stations Pressure Air Temp Water Temp Dewpoint Dewpoint Depression Visibility Wind Speed Wind Dir Waves Ship Positions

Hoeydal

Last reported at 2018-Jun-21 04:00 UTC. Time now 2018-Jun-21 04:14 UTC.
Position N 68°55' E 015°04'.

Length 70 m; draft 5 m.

Type: Cargo ship. MMSI: 257725000.

Date/timePositionNaut miles runAvg speedWind from/ knotsBaromVisibWave heightAir tempDewpointWater temp
2018-Jun-21 04:00N 68°55' E 015°04'0 0.0
2018-Jun-21 03:31N 68°55' E 015°04'0 0.0
2018-Jun-21 03:00N 68°55' E 015°04'0 0.0
2018-Jun-21 02:29N 68°55' E 015°04'0 0.0
2018-Jun-21 02:00N 68°55' E 015°04'0 0.0
2018-Jun-21 01:30N 68°55' E 015°04'0 0.0
2018-Jun-21 01:00N 68°55' E 015°04'0 0.0
2018-Jun-21 00:29N 68°55' E 015°04'0 0.0
2018-Jun-21 00:00N 68°55' E 015°04'0 0.0
2018-Jun-20 23:30N 68°55' E 015°04'0 0.0
2018-Jun-20 23:00N 68°55' E 015°04'0 0.0
2018-Jun-20 22:30N 68°55' E 015°04'0 0.0
2018-Jun-20 22:00N 68°55' E 015°04'0 0.0
2018-Jun-20 21:29N 68°55' E 015°04'0 0.0
2018-Jun-20 21:00N 68°55' E 015°04'0 0.0
2018-Jun-20 20:30N 68°55' E 015°04'0 0.0
2018-Jun-20 20:01N 68°55' E 015°04'0 0.0
2018-Jun-20 19:30N 68°55' E 015°04'0 0.0
2018-Jun-20 19:00N 68°55' E 015°04'0 0.0
2018-Jun-20 18:29N 68°55' E 015°04'0 0.0
2018-Jun-20 18:00N 68°55' E 015°04'0 0.0
2018-Jun-20 17:30N 68°55' E 015°04'0 0.0
2018-Jun-20 17:01N 68°55' E 015°04'0 0.0
2018-Jun-20 16:30N 68°55' E 015°04'0 0.0
2018-Jun-20 16:00N 68°55' E 015°04'0 0.8
2018-Jun-20 15:30N 68°55' E 015°05'0 0.0
2018-Jun-20 14:59N 68°55' E 015°05'0 0.0
2018-Jun-20 14:30N 68°55' E 015°05'0 0.0
2018-Jun-20 14:00N 68°55' E 015°05'0 0.0
2018-Jun-20 13:31N 68°55' E 015°05'0 0.0
2018-Jun-20 13:00N 68°55' E 015°05'0 0.8
2018-Jun-20 12:29N 68°55' E 015°04'0 0.0
2018-Jun-20 12:00N 68°55' E 015°04'0 0.0
2018-Jun-20 11:30N 68°55' E 015°04'0 0.0
2018-Jun-20 11:00N 68°55' E 015°04'0 0.0
2018-Jun-20 10:30N 68°55' E 015°04'0 0.0
2018-Jun-20 10:00N 68°55' E 015°04'0 0.0
2018-Jun-20 09:30N 68°55' E 015°04'0 0.0
2018-Jun-20 08:59N 68°55' E 015°04'0 0.0
2018-Jun-20 08:30N 68°55' E 015°04'0 0.0
2018-Jun-20 08:00N 68°55' E 015°04'0 0.0
2018-Jun-20 07:30N 68°55' E 015°04'0 0.0
2018-Jun-20 07:01N 68°55' E 015°04'0 0.0
2018-Jun-20 06:29N 68°55' E 015°04'0 0.0
2018-Jun-20 06:00N 68°55' E 015°04'0 0.0
2018-Jun-20 05:30N 68°55' E 015°04'0 0.0
2018-Jun-20 05:01N 68°55' E 015°04'0 0.0
2018-Jun-20 04:30N 68°55' E 015°04'0 0.0
2018-Jun-20 04:00N 68°55' E 015°04'0 0.0
2018-Jun-20 03:30N 68°55' E 015°04'0 0.0
2018-Jun-20 02:59N 68°55' E 015°04'0 0.0
2018-Jun-20 02:30N 68°55' E 015°04'4 7.9
2018-Jun-20 02:00N 68°58' E 014°59'5 9.5
2018-Jun-20 01:30N 69°02' E 015°05'510.4
2018-Jun-20 01:00N 69°02' E 015°19'510.4
2018-Jun-20 00:29N 68°56' E 015°24'611.4
2018-Jun-20 00:00N 68°51' E 015°26'611.5
2018-Jun-19 23:30N 68°45' E 015°25'611.5
2018-Jun-19 23:01N 68°40' E 015°25'611.8
2018-Jun-19 22:29N 68°35' E 015°13'510.9
2018-Jun-19 22:00N 68°30' E 015°10'5 9.5
2018-Jun-19 21:30N 68°25' E 015°08'611.2
2018-Jun-19 21:00N 68°20' E 015°01'611.0
2018-Jun-19 20:30N 68°15' E 014°56'611.3
2018-Jun-19 20:00N 68°10' E 014°51'510.8
2018-Jun-19 19:30N 68°05' E 014°46'511.0
2018-Jun-19 19:01N 67°60' E 014°40'611.2
2018-Jun-19 18:31N 67°55' E 014°34'611.8
2018-Jun-19 18:00N 67°49' E 014°30'611.9
2018-Jun-19 17:29N 67°43' E 014°31'612.2
2018-Jun-19 17:01N 67°37' E 014°31'612.3
2018-Jun-19 16:31N 67°31' E 014°29'612.1
2018-Jun-19 16:00N 67°25' E 014°27'612.4
2018-Jun-19 15:30N 67°19' E 014°23'1 2.8
2018-Jun-19 15:01N 67°17' E 014°23'0 0.0
2018-Jun-19 14:30N 67°17' E 014°23'0 0.1
2018-Jun-19 14:00N 67°17' E 014°23'4 8.6
2018-Jun-19 13:30N 67°16' E 014°13'612.3
2018-Jun-19 13:01N 67°11' E 014°04'612.5
2018-Jun-19 12:30N 67°05' E 013°56'611.6
2018-Jun-19 12:01N 67°01' E 013°45'611.4
2018-Jun-19 11:30N 66°58' E 013°33'510.3
2018-Jun-19 11:00N 66°54' E 013°26'611.2
2018-Jun-19 10:29N 66°49' E 013°16'511.3
2018-Jun-19 10:00N 66°44' E 013°12'611.7
2018-Jun-19 09:30N 66°39' E 013°06'610.7
2018-Jun-19 08:59N 66°33' E 013°03'4 9.2
2018-Jun-19 08:29N 66°29' E 012°59'611.6
2018-Jun-19 08:01N 66°24' E 012°59'611.4
2018-Jun-19 07:30N 66°18' E 012°56'5 9.5
2018-Jun-19 07:00N 66°13' E 012°57'2 4.2
2018-Jun-19 06:29N 66°11' E 012°60'4 7.5
2018-Jun-19 06:00N 66°09' E 012°53'511.0
2018-Jun-19 05:31N 66°06' E 012°42'612.6
2018-Jun-19 05:00N 66°01' E 012°32'712.8
2018-Jun-19 04:30N 65°55' E 012°23'612.6
2018-Jun-19 04:00N 65°49' E 012°21'612.6
2018-Jun-19 03:30N 65°43' E 012°16'612.7
2018-Jun-19 03:00N 65°37' E 012°12'612.3
2018-Jun-19 02:30N 65°32' E 012°03'712.4
2018-Jun-19 01:56N 65°26' E 011°56'511.7
2018-Jun-19 01:30N 65°22' E 012°03'612.4
2018-Jun-19 01:00N 65°16' E 011°57'612.5
2018-Jun-19 00:30N 65°10' E 011°51'612.2
2018-Jun-19 00:01N 65°05' E 011°46'611.6
2018-Jun-18 23:31N 65°00' E 011°37'611.6
2018-Jun-18 23:01N 64°56' E 011°27'612.2
2018-Jun-18 22:31N 64°52' E 011°17'1 1.2
2018-Jun-18 22:01N 64°51' E 011°17'4 8.5
2018-Jun-18 21:30N 64°49' E 011°08'612.4
2018-Jun-18 21:00N 64°44' E 010°59'612.4
2018-Jun-18 20:30N 64°40' E 010°47'612.6
2018-Jun-18 20:01N 64°35' E 010°40'612.6
2018-Jun-18 19:30N 64°29' E 010°33'611.9
2018-Jun-18 19:00N 64°24' E 010°26'510.8
2018-Jun-18 18:30N 64°19' E 010°25'611.2
2018-Jun-18 18:00N 64°14' E 010°16'612.4
2018-Jun-18 17:30N 64°10' E 010°08'611.7
2018-Jun-18 17:00N 64°05' E 010°01'4 8.4
2018-Jun-18 16:30N 64°01' E 009°58'612.2
2018-Jun-18 15:59N 63°56' E 009°48'612.1
2018-Jun-18 15:30N 63°51' E 009°40'612.3
2018-Jun-18 15:01N 63°46' E 009°33'611.8
2018-Jun-18 14:30N 63°43' E 009°21'510.8
2018-Jun-18 14:00N 63°39' E 009°16'612.0
2018-Jun-18 13:30N 63°32' E 009°14'3 5.1
2018-Jun-18 13:00N 63°30' E 009°12'0 0.0
2018-Jun-18 12:30N 63°30' E 009°12'2 3.6
2018-Jun-18 12:01N 63°30' E 009°08'3 6.1
2018-Jun-18 11:30N 63°28' E 009°05'0 0.0
2018-Jun-18 11:00N 63°28' E 009°04'0 0.0
2018-Jun-18 10:30N 63°28' E 009°04'0 0.0
2018-Jun-18 10:00N 63°28' E 009°04'2 3.1
2018-Jun-18 09:30N 63°29' E 009°03'4 7.8
2018-Jun-18 09:00N 63°31' E 009°10'1 1.5
2018-Jun-18 08:30N 63°32' E 009°09'3 6.9
2018-Jun-18 08:00N 63°34' E 009°15'1 2.9
2018-Jun-18 07:30N 63°33' E 009°12'0 0.0
2018-Jun-18 07:00N 63°33' E 009°12'0 0.0
2018-Jun-18 06:30N 63°33' E 009°12'0 0.0
2018-Jun-18 06:00N 63°33' E 009°12'0 0.0
2018-Jun-18 05:29N 63°33' E 009°12'0 0.0
2018-Jun-18 05:01N 63°33' E 009°12'0 0.0
2018-Jun-18 04:29N 63°33' E 009°12'0 0.0
2018-Jun-18 04:00N 63°33' E 009°12'0 0.0
2018-Jun-18 03:30N 63°33' E 009°12'0 0.0
2018-Jun-18 03:00N 63°33' E 009°12'0 0.0
2018-Jun-18 02:30N 63°33' E 009°12'0 0.0
2018-Jun-18 02:01N 63°33' E 009°12'0 0.0
2018-Jun-18 01:30N 63°33' E 009°12'0 0.0
2018-Jun-18 01:00N 63°33' E 009°12'0 0.0
2018-Jun-18 00:30N 63°33' E 009°12'0 0.0
2018-Jun-18 00:00N 63°33' E 009°12'0 0.0
2018-Jun-17 23:30N 63°33' E 009°12'0 0.0
2018-Jun-17 23:00N 63°33' E 009°12'0 0.0
2018-Jun-17 22:30N 63°33' E 009°12'0 0.0
2018-Jun-17 22:01N 63°33' E 009°12'0 0.0
2018-Jun-17 21:31N 63°33' E 009°12'0 0.0
2018-Jun-17 21:01N 63°33' E 009°12'0 0.0
2018-Jun-17 20:31N 63°33' E 009°12'0 0.0
2018-Jun-17 20:00N 63°33' E 009°12'0 0.0
2018-Jun-17 19:30N 63°33' E 009°12'0 0.0
2018-Jun-17 19:00N 63°33' E 009°12'2 3.4
2018-Jun-17 18:29N 63°32' E 009°10'611.7
2018-Jun-17 18:00N 63°29' E 009°00'2 3.8
2018-Jun-17 17:31N 63°27' E 008°57'0 0.0
2018-Jun-17 17:00N 63°27' E 008°57'0 0.0
2018-Jun-17 16:30N 63°27' E 008°57'1 1.1
2018-Jun-17 16:00N 63°27' E 008°57'0 0.0
2018-Jun-17 15:28N 63°27' E 008°57'0 0.0
2018-Jun-17 15:00N 63°27' E 008°57'0 0.0
2018-Jun-17 14:28N 63°27' E 008°57'0 0.4
2018-Jun-17 14:00N 63°27' E 008°58'4 8.4
2018-Jun-17 13:31N 63°27' E 008°48'611.8
2018-Jun-17 13:00N 63°25' E 008°36'611.9
2018-Jun-17 12:30N 63°24' E 008°23'510.8
2018-Jun-17 12:00N 63°27' E 008°13'611.9
2018-Jun-17 11:30N 63°33' E 008°15'510.8
2018-Jun-17 11:00N 63°37' E 008°23'510.4
2018-Jun-17 10:29N 63°38' E 008°35'0 0.5
2018-Jun-17 10:00N 63°38' E 008°35'1 1.3
2018-Jun-17 09:29N 63°39' E 008°34'510.1
2018-Jun-17 09:00N 63°40' E 008°45'510.8
2018-Jun-17 08:30N 63°42' E 008°56'510.7
2018-Jun-17 08:00N 63°47' E 008°59'510.4
2018-Jun-17 07:31N 63°50' E 008°50'2 4.4
2018-Jun-17 07:01N 63°49' E 008°45'0 0.0
2018-Jun-17 06:30N 63°49' E 008°45'0 0.0
2018-Jun-17 06:00N 63°49' E 008°45'0 0.0
2018-Jun-17 05:30N 63°49' E 008°45'0 0.0
2018-Jun-17 05:01N 63°49' E 008°45'0 0.0
2018-Jun-17 04:31N 63°49' E 008°45'1 2.4
2018-Jun-17 04:00N 63°50' E 008°47'3 5.7
2018-Jun-17 03:31N 63°50' E 008°53'4 8.4
2018-Jun-17 02:59N 63°47' E 008°60'4 8.7
2018-Jun-17 02:30N 63°43' E 008°57'510.1
2018-Jun-17 01:59N 63°40' E 008°46'2 4.8
2018-Jun-17 01:30N 63°39' E 008°41'0 0.0
2018-Jun-17 01:00N 63°39' E 008°41'0 0.0
2018-Jun-17 00:30N 63°39' E 008°41'0 0.0
2018-Jun-17 00:00N 63°39' E 008°41'0 0.0
2018-Jun-16 23:30N 63°39' E 008°41'0 0.0
2018-Jun-16 23:00N 63°39' E 008°41'0 0.0
2018-Jun-16 22:30N 63°39' E 008°41'0 0.0
2018-Jun-16 22:00N 63°39' E 008°41'0 0.0
2018-Jun-16 21:30N 63°39' E 008°41'0 0.0
2018-Jun-16 21:00N 63°39' E 008°41'0 0.9
2018-Jun-16 20:29N 63°40' E 008°41'1 1.4
2018-Jun-16 20:00N 63°40' E 008°43'4 8.4
2018-Jun-16 19:30N 63°41' E 008°52'510.5
2018-Jun-16 19:00N 63°42' E 009°04'5 9.3
2018-Jun-16 18:30N 63°40' E 009°13'611.1
2018-Jun-16 18:00N 63°34' E 009°16'611.0
2018-Jun-16 17:29N 63°30' E 009°07'3 6.1
2018-Jun-16 16:59N 63°28' E 009°04'0 0.0
2018-Jun-16 16:30N 63°28' E 009°04'3 5.4
2018-Jun-16 16:01N 63°30' E 009°06'2 4.7
2018-Jun-16 15:30N 63°30' E 009°12'0 0.0
2018-Jun-16 15:00N 63°30' E 009°12'0 0.0
2018-Jun-16 14:30N 63°30' E 009°12'1 1.1
2018-Jun-16 14:01N 63°31' E 009°12'2 3.5
2018-Jun-16 13:30N 63°32' E 009°09'0 0.0
2018-Jun-16 13:00N 63°32' E 009°09'0 0.0
2018-Jun-16 12:30N 63°32' E 009°09'3 6.0
2018-Jun-16 12:00N 63°33' E 009°15'510.4
2018-Jun-16 11:30N 63°34' E 009°26'1 2.0
2018-Jun-16 10:59N 63°34' E 009°28'0 0.0
2018-Jun-16 10:30N 63°34' E 009°28'3 6.2
2018-Jun-16 10:00N 63°37' E 009°24'612.3
2018-Jun-16 09:30N 63°40' E 009°13'612.2
2018-Jun-16 09:00N 63°42' E 008°60'714.0
2018-Jun-16 08:30N 63°40' E 008°44'1 2.3
2018-Jun-16 08:00N 63°40' E 008°42'3 6.9
2018-Jun-16 07:30N 63°41' E 008°50'611.3
2018-Jun-16 07:00N 63°42' E 009°02'611.6
2018-Jun-16 06:30N 63°44' E 009°14'611.8
2018-Jun-16 06:00N 63°47' E 009°26'611.6
2018-Jun-16 05:29N 63°50' E 009°37'611.6
2018-Jun-16 05:00N 63°54' E 009°46'611.5
2018-Jun-16 04:30N 63°59' E 009°54'611.0
2018-Jun-16 04:00N 64°03' E 010°03'4 9.0
2018-Jun-16 03:30N 64°07' E 010°03'610.9
2018-Jun-16 03:00N 64°12' E 010°10'510.9
2018-Jun-16 02:30N 64°15' E 010°19'510.4
2018-Jun-16 02:00N 64°20' E 010°26'510.0
2018-Jun-16 01:30N 64°25' E 010°26'3 6.5
2018-Jun-16 01:00N 64°28' E 010°28'3 6.4
2018-Jun-16 00:30N 64°30' E 010°34'2 4.7
2018-Jun-16 00:00N 64°32' E 010°36'2 3.8
2018-Jun-15 23:29N 64°34' E 010°38'2 3.9
2018-Jun-15 23:00N 64°35' E 010°41'2 4.1
2018-Jun-15 22:30N 64°36' E 010°45'2 3.9
2018-Jun-15 22:00N 64°37' E 010°49'2 3.6
2018-Jun-15 21:30N 64°38' E 010°53'2 3.3
2018-Jun-15 21:00N 64°39' E 010°56'2 4.4
2018-Jun-15 20:30N 64°39' E 011°01'3 6.1
2018-Jun-15 20:00N 64°41' E 011°07'5 8.8
2018-Jun-15 19:29N 64°46' E 011°05'4 7.3
2018-Jun-15 19:00N 64°49' E 011°09'4 7.7
2018-Jun-15 18:31N 64°52' E 011°16'0 0.7
2018-Jun-15 18:00N 64°51' E 011°17'0 0.0
2018-Jun-15 17:30N 64°51' E 011°17'0 0.0
2018-Jun-15 17:00N 64°51' E 011°17'0 0.0
2018-Jun-15 16:30N 64°51' E 011°17'0 0.0
2018-Jun-15 16:00N 64°51' E 011°17'0 0.0
2018-Jun-15 15:30N 64°51' E 011°17'0 0.0
2018-Jun-15 15:00N 64°51' E 011°17'0 0.0
2018-Jun-15 14:29N 64°51' E 011°17'0 0.0
2018-Jun-15 14:00N 64°51' E 011°17'0 0.0
2018-Jun-15 13:30N 64°51' E 011°17'0 0.0
2018-Jun-15 13:00N 64°51' E 011°17'0 0.0
2018-Jun-15 12:30N 64°51' E 011°17'0 0.0
2018-Jun-15 12:00N 64°51' E 011°17'0 0.0
2018-Jun-15 11:30N 64°51' E 011°17'0 0.0
2018-Jun-15 11:00N 64°51' E 011°17'0 0.0
2018-Jun-15 10:30N 64°51' E 011°17'0 0.0
2018-Jun-15 10:00N 64°51' E 011°17'0 0.0
2018-Jun-15 09:30N 64°51' E 011°17'0 0.0
2018-Jun-15 09:00N 64°51' E 011°17'0 0.0
2018-Jun-15 08:30N 64°51' E 011°17'0 0.0
2018-Jun-15 08:00N 64°51' E 011°17'0 0.0
2018-Jun-15 07:30N 64°51' E 011°17'0 0.0
2018-Jun-15 07:00N 64°51' E 011°17'0 0.0
2018-Jun-15 06:29N 64°51' E 011°17'0 0.0
2018-Jun-15 06:00N 64°51' E 011°17'0 0.0
2018-Jun-15 05:30N 64°51' E 011°17'0 0.0
2018-Jun-15 05:00N 64°51' E 011°17'0 0.0
2018-Jun-15 04:30N 64°51' E 011°17'0 0.0
2018-Jun-15 04:00N 64°51' E 011°17'0 0.0
2018-Jun-15 03:30N 64°51' E 011°17'0 0.0
2018-Jun-15 03:00N 64°51' E 011°17'0 0.0
2018-Jun-15 02:30N 64°51' E 011°17'0 0.0
2018-Jun-15 02:00N 64°51' E 011°17'0 0.0
2018-Jun-15 01:30N 64°51' E 011°17'0 0.0
2018-Jun-15 01:00N 64°51' E 011°17'0 0.0
2018-Jun-15 00:30N 64°51' E 011°17'0 0.0
2018-Jun-15 00:00N 64°51' E 011°17'0 0.0
2018-Jun-14 23:30N 64°51' E 011°17'0 0.0
2018-Jun-14 23:00N 64°51' E 011°17'0 0.2
2018-Jun-14 22:30N 64°52' E 011°17'0 0.0
2018-Jun-14 22:00N 64°52' E 011°17'0 0.0
2018-Jun-14 21:30N 64°52' E 011°17'0 0.0
2018-Jun-14 21:00N 64°52' E 011°17'0 0.0
2018-Jun-14 20:29N 64°52' E 011°17'0 0.0
2018-Jun-14 20:00N 64°52' E 011°17'0 0.0
2018-Jun-14 19:30N 64°52' E 011°17'0 0.0
2018-Jun-14 19:00N 64°52' E 011°17'0 0.0
2018-Jun-14 18:30N 64°52' E 011°17'0 0.0
2018-Jun-14 18:00N 64°52' E 011°17'0 0.0
2018-Jun-14 17:30N 64°52' E 011°17'0 0.0
2018-Jun-14 17:00N 64°52' E 011°17'0 0.0
2018-Jun-14 16:30N 64°52' E 011°17'0 0.3
2018-Jun-14 16:01N 64°52' E 011°16'4 9.0
2018-Jun-14 15:30N 64°49' E 011°08'611.4
2018-Jun-14 15:00N 64°43' E 011°06'611.9
2018-Jun-14 14:30N 64°38' E 011°13'2 4.6
2018-Jun-14 14:00N 64°36' E 011°16'0 0.0
2018-Jun-14 13:30N 64°36' E 011°16'0 0.0
2018-Jun-14 13:00N 64°36' E 011°16'2 4.0
2018-Jun-14 12:30N 64°38' E 011°14'5 9.9
2018-Jun-14 12:00N 64°40' E 011°03'611.5
2018-Jun-14 11:30N 64°38' E 010°51'611.8
2018-Jun-14 11:00N 64°34' E 010°39'611.9
2018-Jun-14 10:30N 64°31' E 010°28'612.1
2018-Jun-14 10:00N 64°27' E 010°18'612.1
2018-Jun-14 09:30N 64°23' E 010°07'612.2
2018-Jun-14 09:00N 64°18' E 009°57'612.3
2018-Jun-14 08:30N 64°14' E 009°48'612.1
2018-Jun-14 08:00N 64°09' E 009°41'611.7
2018-Jun-14 07:30N 64°03' E 009°34'611.8
2018-Jun-14 07:00N 63°58' E 009°27'612.0
2018-Jun-14 06:30N 63°54' E 009°19'612.0
2018-Jun-14 05:58N 63°49' E 009°10'612.3
2018-Jun-14 05:30N 63°44' E 009°02'3 5.6
2018-Jun-14 05:00N 63°42' E 008°59'0 0.0
2018-Jun-14 04:29N 63°42' E 008°59'4 8.3
2018-Jun-14 04:00N 63°42' E 009°08'611.7
2018-Jun-14 03:30N 63°36' E 009°14'5 9.9
2018-Jun-14 03:00N 63°32' E 009°11'5 9.9
2018-Jun-14 02:30N 63°28' E 009°05'0 0.1
2018-Jun-14 02:00N 63°28' E 009°04'0 0.5
2018-Jun-14 01:30N 63°28' E 009°04'5 9.9
2018-Jun-14 01:00N 63°27' E 008°53'611.5
2018-Jun-14 00:30N 63°26' E 008°41'611.3
2018-Jun-14 00:00N 63°23' E 008°30'611.2
2018-Jun-13 23:29N 63°20' E 008°19'611.6
2018-Jun-13 23:00N 63°16' E 008°10'611.7
2018-Jun-13 22:30N 63°13' E 007°58'611.8
2018-Jun-13 22:00N 63°11' E 007°47'611.7
2018-Jun-13 21:30N 63°08' E 007°36'612.0
2018-Jun-13 21:00N 63°04' E 007°25'611.6
2018-Jun-13 20:30N 63°03' E 007°13'611.6
2018-Jun-13 20:00N 63°00' E 007°01'511.0
2018-Jun-13 19:30N 62°57' E 006°50'611.4
2018-Jun-13 19:00N 62°53' E 006°43'611.5
2018-Jun-13 18:30N 62°48' E 006°37'611.8
2018-Jun-13 18:00N 62°43' E 006°30'611.9
2018-Jun-13 17:30N 62°38' E 006°22'611.3
2018-Jun-13 17:00N 62°34' E 006°13'5 9.1
2018-Jun-13 16:29N 62°30' E 006°09'2 3.9
2018-Jun-13 16:00N 62°29' E 006°12'0 0.0
2018-Jun-13 15:27N 62°29' E 006°12'0 0.0
2018-Jun-13 15:00N 62°29' E 006°12'0 0.0
2018-Jun-13 14:30N 62°29' E 006°12'0 0.0
2018-Jun-13 14:00N 62°29' E 006°12'0 0.0
2018-Jun-13 13:30N 62°29' E 006°12'0 0.0
2018-Jun-13 13:00N 62°29' E 006°12'0 0.0
2018-Jun-13 12:30N 62°29' E 006°12'0 0.0
2018-Jun-13 12:00N 62°29' E 006°12'0 0.0
2018-Jun-13 11:30N 62°29' E 006°12'0 0.0
2018-Jun-13 11:00N 62°29' E 006°12'0 0.0
2018-Jun-13 10:30N 62°29' E 006°12'0 0.0
2018-Jun-13 10:00N 62°29' E 006°12'0 0.3
2018-Jun-13 09:30N 62°29' E 006°12'0 0.0
2018-Jun-13 09:00N 62°29' E 006°12'0 0.5
2018-Jun-13 08:30N 62°29' E 006°12'2 4.4
2018-Jun-13 08:00N 62°29' E 006°07'2 3.8
2018-Jun-13 07:30N 62°27' E 006°10'3 6.4
2018-Jun-13 07:00N 62°26' E 006°17'0 0.2
2018-Jun-13 06:30N 62°26' E 006°17'0 0.0
2018-Jun-13 06:00N 62°26' E 006°17'0 0.0
2018-Jun-13 05:30N 62°26' E 006°17'0 0.0
2018-Jun-13 05:00N 62°26' E 006°17'0 0.0
2018-Jun-13 04:30N 62°27' E 006°17'0 0.0
2018-Jun-13 04:00N 62°26' E 006°17'0 0.0
2018-Jun-13 03:30N 62°26' E 006°17'0 0.0
2018-Jun-13 02:59N 62°26' E 006°17'0 0.0
2018-Jun-13 02:30N 62°26' E 006°17'0 0.0
2018-Jun-13 02:00N 62°26' E 006°17'0 0.0
2018-Jun-13 01:30N 62°26' E 006°17'0 0.0
2018-Jun-13 01:00N 62°26' E 006°17'0 0.0
2018-Jun-13 00:30N 62°26' E 006°17'0 0.0
2018-Jun-13 00:00N 62°26' E 006°17'0 0.0
2018-Jun-12 23:29N 62°26' E 006°17'0 0.0
2018-Jun-12 23:00N 62°26' E 006°17'0 0.0
2018-Jun-12 22:30N 62°26' E 006°17'0 0.0
2018-Jun-12 22:00N 62°26' E 006°17'0 0.0
2018-Jun-12 21:30N 62°26' E 006°17'0 0.0
2018-Jun-12 21:00N 62°26' E 006°17'0 0.0
2018-Jun-12 20:30N 62°26' E 006°17'0 0.0
2018-Jun-12 20:00N 62°26' E 006°17'0 0.0
2018-Jun-12 19:30N 62°26' E 006°17'0 0.0
2018-Jun-12 19:00N 62°26' E 006°17'0 0.0
2018-Jun-12 18:30N 62°26' E 006°17'0 0.0
2018-Jun-12 17:59N 62°26' E 006°17'0 0.0
2018-Jun-12 17:30N 62°26' E 006°17'0 0.0
2018-Jun-12 17:00N 62°26' E 006°17'0 0.0
2018-Jun-12 16:30N 62°26' E 006°17'0 0.0
2018-Jun-12 16:00N 62°26' E 006°17'0 0.0
2018-Jun-12 15:30N 62°26' E 006°17'0 0.0
2018-Jun-12 15:00N 62°26' E 006°17'0 0.0
2018-Jun-12 14:30N 62°26' E 006°17'0 0.0
2018-Jun-12 13:58N 62°26' E 006°17'0 0.0
2018-Jun-12 13:30N 62°26' E 006°17'0 0.0
2018-Jun-12 12:59N 62°26' E 006°17'0 0.0
2018-Jun-12 12:29N 62°26' E 006°17'0 0.0
2018-Jun-12 11:59N 62°26' E 006°17'0 0.0
2018-Jun-12 11:30N 62°26' E 006°17'0 0.0
2018-Jun-12 11:00N 62°26' E 006°17'0 0.0
2018-Jun-12 10:29N 62°26' E 006°17'0 0.0
2018-Jun-12 10:00N 62°26' E 006°17'0 0.0
2018-Jun-12 09:30N 62°26' E 006°17'0 0.0
2018-Jun-12 09:00N 62°26' E 006°17'0 0.0
2018-Jun-12 08:30N 62°27' E 006°17'0 0.0
2018-Jun-12 08:00N 62°26' E 006°17'0 0.0
2018-Jun-12 07:30N 62°26' E 006°17'0 0.0
2018-Jun-12 07:00N 62°26' E 006°17'0 0.0
2018-Jun-12 06:30N 62°26' E 006°17'0 0.0
2018-Jun-12 06:00N 62°26' E 006°17'0 0.0
2018-Jun-12 05:30N 62°26' E 006°17'0 0.0
2018-Jun-12 05:00N 62°26' E 006°17'0 0.0
2018-Jun-12 04:30N 62°26' E 006°17'0 0.0
2018-Jun-12 04:00N 62°26' E 006°17'0 0.0
2018-Jun-12 03:29N 62°26' E 006°17'0 0.0
2018-Jun-12 02:58N 62°26' E 006°17'0 0.0
2018-Jun-12 02:30N 62°26' E 006°17'0 0.0
2018-Jun-12 02:00N 62°26' E 006°17'0 0.0
2018-Jun-12 01:30N 62°26' E 006°17'0 0.0
2018-Jun-12 00:59N 62°26' E 006°17'0 0.0
2018-Jun-12 00:30N 62°26' E 006°17'0 0.0
2018-Jun-12 00:00N 62°26' E 006°17'0 0.0
2018-Jun-11 23:30N 62°26' E 006°17'0 0.0
2018-Jun-11 23:00N 62°26' E 006°17'0 0.0
2018-Jun-11 22:29N 62°26' E 006°17'0 0.0
2018-Jun-11 22:00N 62°26' E 006°17'0 0.0
2018-Jun-11 21:30N 62°26' E 006°17'0 0.0
2018-Jun-11 21:00N 62°26' E 006°17'0 0.0
2018-Jun-11 20:30N 62°26' E 006°17'0 0.0
2018-Jun-11 20:00N 62°26' E 006°17'0 0.0
2018-Jun-11 19:29N 62°26' E 006°17'0 0.0
2018-Jun-11 19:00N 62°26' E 006°17'0 0.0
2018-Jun-11 18:30N 62°26' E 006°17'0 0.0
2018-Jun-11 17:59N 62°26' E 006°17'0 0.0
2018-Jun-11 17:30N 62°26' E 006°17'0 0.0
2018-Jun-11 17:00N 62°26' E 006°17'0 0.0
2018-Jun-11 16:30N 62°26' E 006°17'0 0.0
2018-Jun-11 15:59N 62°26' E 006°17'0 0.0
2018-Jun-11 15:30N 62°26' E 006°17'0 0.0
2018-Jun-11 15:00N 62°26' E 006°17'0 0.0
2018-Jun-11 14:30N 62°26' E 006°17'0 0.0
2018-Jun-11 13:58N 62°26' E 006°17'0 0.0
2018-Jun-11 13:30N 62°26' E 006°17'0 0.0
2018-Jun-11 12:59N 62°26' E 006°17'0 0.0
2018-Jun-11 12:29N 62°26' E 006°17'0 0.0
2018-Jun-11 12:00N 62°26' E 006°17'0 0.0
2018-Jun-11 11:30N 62°26' E 006°17'0 0.0
2018-Jun-11 11:00N 62°26' E 006°17'0 0.0
2018-Jun-11 10:30N 62°26' E 006°17'0 0.0
2018-Jun-11 10:00N 62°26' E 006°17'0 0.3
2018-Jun-11 09:30N 62°26' E 006°17'0 0.0
2018-Jun-11 09:00N 62°26' E 006°17'0 0.0
2018-Jun-11 08:30N 62°26' E 006°17'0 0.0
2018-Jun-11 08:00N 62°26' E 006°17'0 0.0
2018-Jun-11 07:30N 62°26' E 006°17'0 0.0
2018-Jun-11 06:59N 62°26' E 006°17'0 0.0
2018-Jun-11 06:29N 62°26' E 006°17'0 0.5
2018-Jun-11 06:00N 62°27' E 006°17'0 0.1
2018-Jun-11 05:30N 62°27' E 006°17'0 0.0
2018-Jun-11 05:00N 62°27' E 006°17'0 0.0
2018-Jun-11 04:30N 62°27' E 006°17'0 0.0
2018-Jun-11 04:00N 62°27' E 006°17'  

Dump ship's entire track history